Time;durP1;ratioP1;P1;durP2;ratioP2;P2;SDS_P1;SDS_P2;PMS_P1;PMS_P2;Temp;Humidity;BMP_temperature;BMP_pressure;BME280_temperature;BME280_humidity;BME280_pressure;Samples;Min_cycle;Max_cycle;Signal;HPM_P1;HPM_P2
2022/09/17 00:01:00;;;;;;;18.77;2.28;;;11.40;99.20;;;;;;5029327;28;20092;-72
2022/09/17 00:03:27;;;;;;;18.23;2.72;;;11.30;99.20;;;;;;5030551;28;20037;-72
2022/09/17 00:06:08;;;;;;;22.90;2.80;;;11.30;99.10;;;;;;5031844;28;20026;-72
2022/09/17 00:08:36;;;;;;;19.13;2.78;;;11.30;99.10;;;;;;5029132;28;20469;-71
2022/09/17 00:11:10;;;;;;;20.00;2.30;;;11.30;99.10;;;;;;5028768;28;20095;-72
2022/09/17 00:13:36;;;;;;;14.20;2.42;;;11.30;99.10;;;;;;5030071;28;20032;-72
2022/09/17 00:16:02;;;;;;;15.48;2.40;;;11.30;99.10;;;;;;5032150;28;20033;-72
2022/09/17 00:18:27;;;;;;;14.35;2.08;;;11.20;99.10;;;;;;5028511;28;20109;-72
2022/09/17 00:20:53;;;;;;;14.50;2.08;;;11.20;99.00;;;;;;5033361;28;20429;-71
2022/09/17 00:23:18;;;;;;;20.40;2.13;;;11.20;98.90;;;;;;5032074;28;20107;-72
2022/09/17 00:25:45;;;;;;;19.65;2.47;;;11.20;99.00;;;;;;5032010;28;20490;-72
2022/09/17 00:28:12;;;;;;;15.85;2.00;;;11.10;99.00;;;;;;5028950;28;20108;-72
2022/09/17 00:30:39;;;;;;;12.95;1.92;;;11.10;98.90;;;;;;5029956;28;20029;-72
2022/09/17 00:33:05;;;;;;;17.52;2.10;;;11.10;98.90;;;;;;5032018;28;20091;-72
2022/09/17 00:35:30;;;;;;;18.55;1.90;;;11.10;98.80;;;;;;5033578;28;20248;-73
2022/09/17 00:37:56;;;;;;;23.17;2.65;;;11.10;98.80;;;;;;5029791;28;20439;-72
2022/09/17 00:40:21;;;;;;;13.38;1.88;;;11.10;98.80;;;;;;5028542;28;20032;-72
2022/09/17 00:42:47;;;;;;;12.77;1.80;;;11.10;98.80;;;;;;5024696;28;20150;-74
2022/09/17 00:45:13;;;;;;;16.45;2.35;;;11.10;98.80;;;;;;5040139;28;20044;-72
2022/09/17 00:47:42;;;;;;;12.73;1.90;;;11.00;98.80;;;;;;5028601;28;20065;-73
2022/09/17 00:50:17;;;;;;;16.13;1.95;;;11.00;98.80;;;;;;5031254;28;20068;-73
2022/09/17 00:52:48;;;;;;;12.05;1.88;;;10.90;98.70;;;;;;5030896;28;20079;-73
2022/09/17 00:55:35;;;;;;;15.30;2.13;;;10.90;98.70;;;;;;5031424;28;20068;-73
2022/09/17 00:58:03;;;;;;;13.00;1.83;;;10.90;98.80;;;;;;5022812;28;20482;-73
2022/09/17 01:00:29;;;;;;;11.07;1.88;;;10.80;98.80;;;;;;5027531;28;20033;-73
2022/09/17 01:02:56;;;;;;;14.38;1.85;;;10.90;98.80;;;;;;5032291;28;20037;-73
2022/09/17 01:05:46;;;;;;;10.88;1.58;;;10.90;98.90;;;;;;5031859;28;20145;-73
2022/09/17 01:08:37;;;;;;;19.90;2.10;;;10.90;98.90;;;;;;5027468;28;20122;-73
2022/09/17 01:11:42;;;;;;;13.82;2.13;;;10.90;98.90;;;;;;5027910;28;20033;-73
2022/09/17 01:14:54;;;;;;;8.70;1.70;;;10.90;99.00;;;;;;5019615;28;20072;-72
2022/09/17 01:17:27;;;;;;;14.43;1.75;;;10.90;99.00;;;;;;5022926;28;20037;-72
2022/09/17 01:20:30;;;;;;;9.63;1.83;;;11.00;99.00;;;;;;5037780;28;20056;-73
2022/09/17 01:23:08;;;;;;;20.45;2.42;;;11.00;99.00;;;;;;5028647;28;20057;-72
2022/09/17 01:25:48;;;;;;;18.45;2.22;;;11.00;99.10;;;;;;5021297;28;20420;-72
2022/09/17 01:28:25;;;;;;;14.77;2.25;;;10.90;99.10;;;;;;5026437;28;20037;-72
2022/09/17 01:31:00;;;;;;;29.67;2.63;;;10.90;99.10;;;;;;5016683;28;20041;-72
2022/09/17 01:33:57;;;;;;;15.55;2.55;;;10.80;99.20;;;;;;5027578;28;20029;-72
2022/09/17 01:36:38;;;;;;;10.45;2.28;;;10.90;99.30;;;;;;5012274;28;20468;-72
2022/09/17 01:39:10;;;;;;;16.45;2.55;;;10.90;99.30;;;;;;5016590;28;20029;-73
2022/09/17 01:41:53;;;;;;;14.85;2.58;;;10.90;99.30;;;;;;5025980;28;20041;-72
2022/09/17 01:45:21;;;;;;;26.20;2.58;;;10.90;99.30;;;;;;5029194;28;20069;-72
2022/09/17 01:48:04;;;;;;;15.50;1.95;;;10.90;99.40;;;;;;5008610;28;20033;-73
2022/09/17 01:50:35;;;;;;;21.17;3.00;;;10.90;99.40;;;;;;5008328;28;20045;-72
2022/09/17 01:53:04;;;;;;;22.08;2.50;;;10.90;99.40;;;;;;5021613;28;20041;-72
2022/09/17 01:55:35;;;;;;;18.83;2.47;;;10.90;99.40;;;;;;5027671;28;20087;-73
2022/09/17 01:58:03;;;;;;;;;;;10.90;99.30;;;;;;5023195;28;20041;-72
2022/09/17 02:00:29;;;;;;;20.00;2.47;;;10.90;99.40;;;;;;5029101;28;19947;-73
2022/09/17 02:03:20;;;;;;;17.55;1.70;;;10.80;99.30;;;;;;5031170;28;20084;-72
2022/09/17 02:05:56;;;;;;;18.10;2.90;;;10.80;99.30;;;;;;5028932;28;20048;-74
2022/09/17 02:08:25;;;;;;;19.55;2.35;;;10.70;99.20;;;;;;5024377;28;20037;-74
2022/09/17 02:11:08;;;;;;;23.05;2.63;;;10.80;99.30;;;;;;5029437;28;20065;-73
2022/09/17 02:13:37;;;;;;;14.82;2.20;;;10.80;99.30;;;;;;5027801;28;20501;-73
2022/09/17 02:16:23;;;;;;;18.33;2.63;;;10.70;99.20;;;;;;5031388;28;20044;-73
2022/09/17 02:18:59;;;;;;;24.45;2.17;;;10.70;99.20;;;;;;5029678;28;20045;-72
2022/09/17 02:21:50;;;;;;;22.52;2.17;;;10.70;99.20;;;;;;5030406;28;20217;-72
2022/09/17 02:24:25;;;;;;;20.47;2.50;;;10.60;99.10;;;;;;5030790;28;20037;-73
2022/09/17 02:27:10;;;;;;;15.55;2.30;;;10.60;99.10;;;;;;5023706;28;20018;-72
2022/09/17 02:29:40;;;;;;;12.70;2.10;;;10.60;99.10;;;;;;5019757;28;20029;-72
2022/09/17 02:32:06;;;;;;;9.48;1.75;;;10.60;99.10;;;;;;5034991;28;20037;-73
2022/09/17 02:34:33;;;;;;;17.33;2.72;;;10.60;99.10;;;;;;5035291;28;20113;-72
2022/09/17 02:36:58;;;;;;;23.65;2.08;;;10.60;99.10;;;;;;5028095;28;20089;-73
2022/09/17 02:39:25;;;;;;;20.35;2.05;;;10.60;99.10;;;;;;5030304;28;20022;-72
2022/09/17 02:42:08;;;;;;;16.33;2.55;;;10.60;99.10;;;;;;5029416;28;20061;-72
2022/09/17 02:44:45;;;;;;;15.77;2.17;;;10.60;99.00;;;;;;5020213;28;20087;-72
2022/09/17 02:47:51;;;;;;;17.30;2.47;;;10.60;99.00;;;;;;5024779;28;20029;-72
2022/09/17 02:50:29;;;;;;;10.45;1.65;;;10.60;99.00;;;;;;5011410;28;20392;-73
2022/09/17 02:53:22;;;;;;;18.00;2.15;;;10.60;98.80;;;;;;5030381;28;20087;-72
2022/09/17 02:56:19;;;;;;;17.48;2.08;;;10.50;98.70;;;;;;5029311;28;20033;-73
2022/09/17 02:59:11;;;;;;;13.23;1.70;;;10.50;98.80;;;;;;5029442;28;20025;-72
2022/09/17 03:01:46;;;;;;;17.02;2.85;;;10.50;98.80;;;;;;5012579;28;20041;-72
2022/09/17 03:04:15;;;;;;;23.88;2.10;;;10.50;98.80;;;;;;5031759;28;20022;-73
2022/09/17 03:06:44;;;;;;;14.45;1.95;;;10.50;98.70;;;;;;5021245;28;20076;-74
2022/09/17 03:09:10;;;;;;;18.13;2.10;;;10.50;98.80;;;;;;5029767;28;20512;-72
2022/09/17 03:11:35;;;;;;;13.15;2.08;;;10.50;98.80;;;;;;5029390;28;20061;-72
2022/09/17 03:14:01;;;;;;;11.77;1.85;;;10.50;98.80;;;;;;5030945;28;20037;-72
2022/09/17 03:16:26;;;;;;;12.23;1.77;;;10.50;98.80;;;;;;5033858;28;20401;-74
2022/09/17 03:18:52;;;;;;;11.02;1.98;;;10.40;98.80;;;;;;5034457;28;20589;-72
2022/09/17 03:21:17;;;;;;;11.70;1.88;;;10.50;98.80;;;;;;5033578;28;20108;-73
2022/09/17 03:23:43;;;;;;;12.57;1.67;;;10.40;98.80;;;;;;5031629;28;20037;-73
2022/09/17 03:26:08;;;;;;;13.57;1.92;;;10.50;98.90;;;;;;5029143;28;20030;-74
2022/09/17 03:28:34;;;;;;;13.50;1.60;;;10.40;98.90;;;;;;5025277;28;20029;-73
2022/09/17 03:31:00;;;;;;;14.20;2.03;;;10.40;98.90;;;;;;5032119;28;20038;-73
2022/09/17 03:33:25;;;;;;;16.38;2.05;;;10.40;99.00;;;;;;5033579;28;20035;-73
2022/09/17 03:35:51;;;;;;;12.43;1.77;;;10.40;99.10;;;;;;5030685;28;20044;-73
2022/09/17 03:38:16;;;;;;;6.93;1.02;;;10.40;99.10;;;;;;5029021;28;20094;-73
2022/09/17 03:40:42;;;;;;;10.30;1.45;;;10.40;99.10;;;;;;5027101;28;20496;-73
2022/09/17 03:43:08;;;;;;;11.13;1.60;;;10.30;99.10;;;;;;5027370;28;20037;-72
2022/09/17 03:45:33;;;;;;;9.10;1.20;;;10.30;99.10;;;;;;5032019;28;20048;-73
2022/09/17 03:47:59;;;;;;;14.32;1.65;;;10.30;99.00;;;;;;5032063;28;20074;-73
2022/09/17 03:50:25;;;;;;;9.20;1.10;;;10.20;99.10;;;;;;5031785;28;20072;-73
2022/09/17 03:52:50;;;;;;;10.45;1.33;;;10.30;99.00;;;;;;5033708;28;20048;-73
2022/09/17 03:55:16;;;;;;;10.23;1.55;;;10.30;99.10;;;;;;5024321;28;20464;-72
2022/09/17 03:57:42;;;;;;;12.60;1.90;;;10.30;99.10;;;;;;5024804;28;20489;-72
2022/09/17 04:00:08;;;;;;;17.98;2.42;;;10.30;99.10;;;;;;5027482;28;20041;-73
2022/09/17 04:02:34;;;;;;;14.05;1.45;;;10.40;99.10;;;;;;5032794;28;20028;-73
2022/09/17 04:04:59;;;;;;;12.18;1.83;;;10.40;99.10;;;;;;5029155;28;20523;-72
2022/09/17 04:07:25;;;;;;;8.50;1.30;;;10.40;99.10;;;;;;5031861;28;20432;-72
2022/09/17 04:09:50;;;;;;;9.40;1.90;;;10.30;99.10;;;;;;5034578;28;20121;-73
2022/09/17 04:12:16;;;;;;;13.13;1.48;;;10.30;99.10;;;;;;5030100;28;20038;-72
2022/09/17 04:14:41;;;;;;;9.82;1.30;;;10.30;99.10;;;;;;5032883;28;20048;-72
2022/09/17 04:17:07;;;;;;;15.07;2.03;;;10.30;99.10;;;;;;5033521;28;20487;-73
2022/09/17 04:19:32;;;;;;;14.95;1.85;;;10.30;99.10;;;;;;5033565;28;20030;-73
2022/09/17 04:21:59;;;;;;;13.68;1.88;;;10.30;99.10;;;;;;5033238;28;20385;-72
2022/09/17 04:24:24;;;;;;;15.48;1.40;;;10.30;99.20;;;;;;5027885;28;20029;-72
2022/09/17 04:26:50;;;;;;;15.02;2.05;;;10.20;99.10;;;;;;5039767;28;20030;-73
2022/09/17 04:29:15;;;;;;;15.85;1.80;;;10.20;99.10;;;;;;5030133;28;20501;-73
2022/09/17 04:31:40;;;;;;;13.35;2.10;;;10.20;99.10;;;;;;5033267;28;20037;-73
2022/09/17 04:34:06;;;;;;;3.65;0.93;;;10.20;99.10;;;;;;5031911;28;20033;-72
2022/09/17 04:36:31;;;;;;;12.00;1.70;;;10.10;99.00;;;;;;5033505;28;20033;-72
2022/09/17 04:38:57;;;;;;;9.05;1.55;;;10.10;99.00;;;;;;5033176;28;20032;-73
2022/09/17 04:41:22;;;;;;;12.82;1.70;;;10.10;99.00;;;;;;5029481;28;20531;-72
2022/09/17 04:43:48;;;;;;;13.57;1.90;;;10.10;99.00;;;;;;5028304;28;20486;-72
2022/09/17 04:46:15;;;;;;;11.20;1.58;;;10.10;98.90;;;;;;5028833;28;20065;-72
2022/09/17 04:48:41;;;;;;;9.00;1.30;;;10.10;98.90;;;;;;5032726;28;20087;-72
2022/09/17 04:51:06;;;;;;;11.48;1.55;;;10.10;98.90;;;;;;5032777;28;20509;-72
2022/09/17 04:53:31;;;;;;;13.48;1.35;;;10.00;98.80;;;;;;5028644;28;20029;-72
2022/09/17 04:55:57;;;;;;;11.70;1.73;;;10.10;98.90;;;;;;5031404;28;20040;-72
2022/09/17 04:58:22;;;;;;;15.63;1.77;;;10.10;98.90;;;;;;5026497;28;20033;-72
2022/09/17 05:00:48;;;;;;;16.00;1.67;;;10.00;98.80;;;;;;5029295;28;20119;-72
2022/09/17 05:03:13;;;;;;;8.77;1.15;;;10.00;98.80;;;;;;5029757;28;20369;-72
2022/09/17 05:05:39;;;;;;;15.30;1.92;;;10.00;98.90;;;;;;5032804;28;20041;-73
2022/09/17 05:08:07;;;;;;;10.68;1.40;;;10.00;98.90;;;;;;5031591;28;20041;-72
2022/09/17 05:10:32;;;;;;;12.77;1.27;;;10.00;98.90;;;;;;5030651;28;20033;-72
2022/09/17 05:12:58;;;;;;;13.63;1.60;;;10.00;99.00;;;;;;5029234;28;20107;-72
2022/09/17 05:15:25;;;;;;;11.85;1.50;;;9.90;98.90;;;;;;5027152;28;20091;-72
2022/09/17 05:17:51;;;;;;;13.63;1.50;;;10.00;98.90;;;;;;5029034;28;20035;-72
2022/09/17 05:20:16;;;;;;;12.95;1.70;;;10.00;98.90;;;;;;5031019;28;20033;-72
2022/09/17 05:22:44;;;;;;;14.70;1.50;;;9.90;98.80;;;;;;5030981;28;20053;-73
2022/09/17 05:25:11;;;;;;;12.85;2.00;;;9.90;98.90;;;;;;5029695;28;20037;-71
2022/09/17 05:27:38;;;;;;;11.02;2.10;;;9.80;98.70;;;;;;5024585;28;20037;-71
2022/09/17 05:30:04;;;;;;;12.65;1.90;;;9.80;98.70;;;;;;5028320;28;20370;-72
2022/09/17 05:32:30;;;;;;;16.33;2.25;;;9.80;98.80;;;;;;5026015;28;20037;-72
2022/09/17 05:34:55;;;;;;;10.43;1.92;;;9.80;98.70;;;;;;5042952;28;20029;-73
2022/09/17 05:37:21;;;;;;;14.70;1.85;;;9.80;98.80;;;;;;5030720;28;20073;-72
2022/09/17 05:39:46;;;;;;;16.98;1.33;;;9.80;98.70;;;;;;5025506;28;20552;-72
2022/09/17 05:42:11;;;;;;;11.25;2.00;;;9.80;98.80;;;;;;5024891;28;20087;-72
2022/09/17 05:44:37;;;;;;;11.20;1.70;;;9.80;98.80;;;;;;5028880;28;20437;-72
2022/09/17 05:47:03;;;;;;;13.10;2.03;;;9.70;98.80;;;;;;5025982;28;20091;-72
2022/09/17 05:49:28;;;;;;;14.85;1.77;;;9.60;98.80;;;;;;5029871;28;20036;-72
2022/09/17 05:51:54;;;;;;;14.32;2.38;;;9.60;98.90;;;;;;5031235;28;20076;-72
2022/09/17 05:54:19;;;;;;;11.13;2.50;;;9.60;98.90;;;;;;5024487;28;20458;-72
2022/09/17 05:56:45;;;;;;;11.38;1.55;;;9.60;98.90;;;;;;5016137;28;20108;-72
2022/09/17 05:59:11;;;;;;;13.73;2.25;;;9.60;99.00;;;;;;5019164;28;20029;-72
2022/09/17 06:01:36;;;;;;;14.57;2.00;;;9.50;99.00;;;;;;5029944;28;20037;-72
2022/09/17 06:04:03;;;;;;;14.18;2.00;;;9.60;99.00;;;;;;5024326;28;20112;-72
2022/09/17 06:06:29;;;;;;;19.92;1.85;;;9.50;99.00;;;;;;5025400;28;20121;-71
2022/09/17 06:08:58;;;;;;;15.32;2.75;;;9.50;99.00;;;;;;5035420;28;20496;-72
2022/09/17 06:11:23;;;;;;;17.75;2.53;;;9.50;99.00;;;;;;5020566;28;20033;-72
2022/09/17 06:13:53;;;;;;;17.38;1.80;;;9.50;99.00;;;;;;5028858;28;20103;-71
2022/09/17 06:16:20;;;;;;;13.98;2.45;;;9.60;98.90;;;;;;5029991;28;20029;-72
2022/09/17 06:18:45;;;;;;;15.38;1.83;;;9.50;98.70;;;;;;5026172;28;20034;-71
2022/09/17 06:21:11;;;;;;;14.65;1.83;;;9.60;98.70;;;;;;5023345;28;20072;-72
2022/09/17 06:23:36;;;;;;;12.85;1.83;;;9.60;98.50;;;;;;5022289;28;20045;-72
2022/09/17 06:26:04;;;;;;;12.25;1.80;;;9.60;98.50;;;;;;5025055;28;20072;-72
2022/09/17 06:28:30;;;;;;;18.67;2.20;;;9.70;98.30;;;;;;5024520;28;20029;-72
2022/09/17 06:31:00;;;;;;;17.65;2.53;;;9.70;98.40;;;;;;5018484;28;20458;-73
2022/09/17 06:33:26;;;;;;;12.45;1.90;;;9.80;98.30;;;;;;5024206;28;20025;-72
2022/09/17 06:36:06;;;;;;;6.55;1.77;;;9.90;98.20;;;;;;5021060;28;20037;-72
2022/09/17 06:38:34;;;;;;;25.90;1.77;;;10.00;98.10;;;;;;5025152;28;20391;-71
2022/09/17 06:41:00;;;;;;;13.70;1.70;;;10.00;97.80;;;;;;5028988;28;20342;-73
2022/09/17 06:43:26;;;;;;;10.75;1.20;;;9.90;97.80;;;;;;5025988;28;20092;-72
2022/09/17 06:45:56;;;;;;;13.05;1.67;;;9.90;97.60;;;;;;5026203;28;20026;-72
2022/09/17 06:48:22;;;;;;;15.18;1.75;;;9.90;97.50;;;;;;5029284;28;20026;-73
2022/09/17 06:50:49;;;;;;;12.82;1.52;;;9.90;97.40;;;;;;5032045;28;20108;-72
2022/09/17 06:53:15;;;;;;;11.95;1.42;;;9.80;97.10;;;;;;5032542;28;20025;-73
2022/09/17 06:55:40;;;;;;;9.30;1.23;;;9.90;97.00;;;;;;5028627;28;20397;-72
2022/09/17 06:58:06;;;;;;;13.02;1.80;;;9.90;96.80;;;;;;5025014;28;20499;-72
2022/09/17 07:00:31;;;;;;;8.35;1.50;;;9.90;96.80;;;;;;5028696;28;20432;-71
2022/09/17 07:02:58;;;;;;;16.20;2.35;;;10.00;96.90;;;;;;5031167;28;20465;-72
2022/09/17 07:05:24;;;;;;;10.90;1.50;;;10.00;96.90;;;;;;5029090;28;20025;-72
2022/09/17 07:07:50;;;;;;;12.75;1.52;;;10.10;97.00;;;;;;5030527;28;20118;-72
2022/09/17 07:10:16;;;;;;;6.95;1.60;;;10.10;96.80;;;;;;5028753;28;20021;-72
2022/09/17 07:12:42;;;;;;;9.20;1.65;;;10.10;96.60;;;;;;5025683;28;20098;-74
2022/09/17 07:15:10;;;;;;;13.68;1.52;;;10.20;96.30;;;;;;5027810;28;20056;-73
2022/09/17 07:17:39;;;;;;;7.93;1.33;;;10.20;96.30;;;;;;5035874;28;20254;-72
2022/09/17 07:20:06;;;;;;;17.30;2.22;;;10.30;96.40;;;;;;5031792;28;20059;-73
2022/09/17 07:22:31;;;;;;;10.50;1.20;;;10.40;96.20;;;;;;5034092;28;20113;-72
2022/09/17 07:24:57;;;;;;;8.15;1.35;;;10.40;95.70;;;;;;5031426;28;20065;-73
2022/09/17 07:27:22;;;;;;;11.43;1.67;;;10.50;95.30;;;;;;5023907;28;20029;-72
2022/09/17 07:29:48;;;;;;;7.47;1.10;;;10.60;94.80;;;;;;5025414;28;20041;-72
2022/09/17 07:32:13;;;;;;;14.63;1.63;;;10.60;95.10;;;;;;5026589;28;20041;-72
2022/09/17 07:34:39;;;;;;;7.70;1.55;;;10.70;94.80;;;;;;5028462;28;20091;-72
2022/09/17 07:37:04;;;;;;;9.48;1.98;;;10.90;94.60;;;;;;5032776;28;20489;-72
2022/09/17 07:39:30;;;;;;;9.50;1.83;;;11.00;94.00;;;;;;5029729;28;20022;-73
2022/09/17 07:41:56;;;;;;;13.73;1.40;;;11.00;93.10;;;;;;5027982;28;20030;-72
2022/09/17 07:44:21;;;;;;;7.93;1.00;;;11.10;93.50;;;;;;5027320;28;20034;-73
2022/09/17 07:46:47;;;;;;;8.77;1.38;;;11.10;93.20;;;;;;5025976;28;20061;-73
2022/09/17 07:49:12;;;;;;;12.27;1.42;;;11.10;92.90;;;;;;5028259;28;20029;-72
2022/09/17 07:51:38;;;;;;;12.00;1.80;;;11.10;92.60;;;;;;5028004;28;20480;-73
2022/09/17 07:54:05;;;;;;;13.25;1.83;;;11.20;92.70;;;;;;5028465;28;20079;-72
2022/09/17 07:56:30;;;;;;;11.77;1.50;;;11.40;92.90;;;;;;5027851;28;20029;-72
2022/09/17 07:58:56;;;;;;;13.93;2.05;;;11.70;91.90;;;;;;5027326;28;20488;-72
2022/09/17 08:01:22;;;;;;;11.85;1.65;;;11.80;91.20;;;;;;5023889;28;20034;-72
2022/09/17 08:03:50;;;;;;;8.23;1.70;;;11.60;90.50;;;;;;5027984;28;20037;-73
2022/09/17 08:06:19;;;;;;;7.78;1.60;;;11.40;89.40;;;;;;5028018;28;20080;-73
2022/09/17 08:08:45;;;;;;;7.05;1.15;;;11.30;89.90;;;;;;5031101;28;20048;-72
2022/09/17 08:11:13;;;;;;;9.45;1.40;;;11.00;90.10;;;;;;5028884;28;20041;-73
2022/09/17 08:13:39;;;;;;;6.38;1.40;;;11.00;90.40;;;;;;5023362;28;20033;-74
2022/09/17 08:16:07;;;;;;;4.85;1.00;;;11.20;90.30;;;;;;5033884;28;20029;-72
2022/09/17 08:18:34;;;;;;;6.10;1.17;;;11.30;90.40;;;;;;5034976;28;20025;-73
2022/09/17 08:21:02;;;;;;;7.47;1.38;;;11.30;90.00;;;;;;5032168;28;20048;-73
2022/09/17 08:23:29;;;;;;;7.05;1.45;;;11.10;90.10;;;;;;5029867;28;20037;-72
2022/09/17 08:25:57;;;;;;;4.70;0.68;;;10.80;90.80;;;;;;5022687;28;20087;-73
2022/09/17 08:28:25;;;;;;;11.35;1.10;;;10.40;90.70;;;;;;5023585;28;20036;-72
2022/09/17 08:30:51;;;;;;;7.07;0.98;;;10.30;91.80;;;;;;5028337;28;20374;-72
2022/09/17 08:33:18;;;;;;;5.55;1.05;;;10.20;92.90;;;;;;5031863;28;20029;-71
2022/09/17 08:35:58;;;;;;;9.07;1.20;;;10.10;93.50;;;;;;5027109;28;20072;-72
2022/09/17 08:38:24;;;;;;;11.75;1.40;;;10.10;94.10;;;;;;5030069;28;20034;-73
2022/09/17 08:41:10;;;;;;;8.60;1.70;;;10.20;94.50;;;;;;5027597;28;20482;-72
2022/09/17 08:44:00;;;;;;;8.82;1.77;;;10.20;94.90;;;;;;5028023;28;20037;-72
2022/09/17 08:46:27;;;;;;;11.70;1.40;;;10.20;94.80;;;;;;5025125;28;20032;-71
2022/09/17 08:49:11;;;;;;;8.32;1.48;;;10.30;94.90;;;;;;5027593;28;20497;-71
2022/09/17 08:52:25;;;;;;;6.55;1.40;;;10.30;94.90;;;;;;5031817;28;20037;-71
2022/09/17 08:54:59;;;;;;;13.95;1.63;;;10.30;95.00;;;;;;5004844;28;20042;-71
2022/09/17 08:57:51;;;;;;;7.15;1.60;;;10.30;95.20;;;;;;5024273;28;20311;-72
2022/09/17 09:00:19;;;;;;;12.60;2.00;;;10.30;95.30;;;;;;5025044;28;20037;-73
2022/09/17 09:03:21;;;;;;;11.57;1.80;;;10.30;95.50;;;;;;5029192;28;20041;-74
2022/09/17 09:05:51;;;;;;;6.82;1.42;;;10.30;95.50;;;;;;5028474;28;20457;-72
2022/09/17 09:08:16;;;;;;;11.43;1.92;;;10.70;95.30;;;;;;5030602;28;20132;-72
2022/09/17 09:10:55;;;;;;;11.02;1.92;;;11.10;94.30;;;;;;5030890;28;20532;-72
2022/09/17 09:13:23;;;;;;;13.60;2.17;;;11.50;93.20;;;;;;5024172;28;20022;-72
2022/09/17 09:16:00;;;;;;;15.70;2.00;;;11.80;91.50;;;;;;5021606;28;20033;-72
2022/09/17 09:18:29;;;;;;;9.63;1.98;;;12.00;91.40;;;;;;5017769;28;20030;-73
2022/09/17 09:21:28;;;;;;;10.90;1.65;;;12.40;90.40;;;;;;5028913;28;20036;-73
2022/09/17 09:24:12;;;;;;;6.60;1.52;;;12.30;88.50;;;;;;5019030;28;20029;-73
2022/09/17 09:26:56;;;;;;;8.80;1.13;;;12.40;88.10;;;;;;5019200;28;20034;-72
2022/09/17 09:29:46;;;;;;;6.13;1.10;;;12.30;85.80;;;;;;5018551;28;20026;-73
2022/09/17 09:32:17;;;;;;;5.75;1.00;;;12.20;87.60;;;;;;5019161;28;20496;-72
2022/09/17 09:34:44;;;;;;;7.05;1.25;;;12.00;87.30;;;;;;5020150;28;20033;-73
2022/09/17 09:37:24;;;;;;;8.25;0.80;;;11.70;88.90;;;;;;5023672;28;20444;-72
2022/09/17 09:39:52;;;;;;;5.83;0.97;;;11.40;91.00;;;;;;5020428;28;20071;-72
2022/09/17 09:42:29;;;;;;;4.65;0.85;;;11.30;91.80;;;;;;5017427;28;20048;-72
2022/09/17 09:44:59;;;;;;;1.92;0.50;;;11.20;91.90;;;;;;5022305;28;20113;-72
2022/09/17 09:47:58;;;;;;;2.38;0.45;;;11.20;91.10;;;;;;5018260;28;20033;-72
2022/09/17 09:50:45;;;;;;;4.25;0.60;;;11.60;90.20;;;;;;5024174;28;20037;-72
2022/09/17 09:53:35;;;;;;;5.35;0.60;;;12.00;88.00;;;;;;5021971;28;20136;-73
2022/09/17 09:56:15;;;;;;;2.17;0.38;;;12.20;87.10;;;;;;5019629;28;20025;-72
2022/09/17 09:58:42;;;;;;;2.53;0.40;;;12.00;84.50;;;;;;5019694;28;20463;-73
2022/09/17 10:01:13;;;;;;;3.70;0.60;;;12.00;85.50;;;;;;5021132;28;20156;-74
2022/09/17 10:03:41;;;;;;;2.42;0.52;;;12.00;86.20;;;;;;5023932;28;20440;-72
2022/09/17 10:06:09;;;;;;;3.05;0.55;;;11.80;86.70;;;;;;5018767;28;20094;-71
2022/09/17 10:08:40;;;;;;;1.75;0.50;;;11.50;86.10;;;;;;5029259;28;20388;-72
2022/09/17 10:11:22;;;;;;;0.93;0.30;;;11.20;88.00;;;;;;5030845;28;20124;-73
2022/09/17 10:13:48;;;;;;;4.63;0.70;;;11.00;89.20;;;;;;5024058;28;20025;-73
2022/09/17 10:16:20;;;;;;;3.45;0.80;;;10.90;90.30;;;;;;5026886;28;20125;-71
2022/09/17 10:18:47;;;;;;;6.32;0.85;;;10.70;91.20;;;;;;5026538;28;20044;-71
2022/09/17 10:21:30;;;;;;;3.30;0.68;;;10.60;91.90;;;;;;5021356;28;20053;-70
2022/09/17 10:23:57;;;;;;;2.75;0.70;;;10.50;92.70;;;;;;5015426;28;20073;-70
2022/09/17 10:26:32;;;;;;;3.20;0.88;;;10.30;93.40;;;;;;5010664;28;20026;-70
2022/09/17 10:29:03;;;;;;;1.80;0.30;;;10.10;93.60;;;;;;5021517;28;21037;-72
2022/09/17 10:31:48;;;;;;;4.00;0.55;;;10.00;94.40;;;;;;5030061;28;20039;-71
2022/09/17 10:34:24;;;;;;;1.83;0.47;;;9.90;94.60;;;;;;5041853;28;20056;-71
2022/09/17 10:36:51;;;;;;;2.33;0.40;;;9.80;94.60;;;;;;5014254;28;20393;-71
2022/09/17 10:39:30;;;;;;;4.57;0.50;;;10.00;95.10;;;;;;5029000;28;20362;-71
2022/09/17 10:41:58;;;;;;;2.13;0.52;;;10.00;94.70;;;;;;5025566;28;20029;-71
2022/09/17 10:44:26;;;;;;;3.47;0.50;;;10.10;94.70;;;;;;5018250;28;20040;-73
2022/09/17 10:46:53;;;;;;;2.40;0.60;;;10.10;94.70;;;;;;5025158;28;20029;-71
2022/09/17 10:49:39;;;;;;;4.32;0.98;;;10.20;94.20;;;;;;5024576;28;20030;-71
2022/09/17 10:52:28;;;;;;;2.45;0.50;;;10.10;94.60;;;;;;5021482;28;20029;-71
2022/09/17 10:55:06;;;;;;;3.22;0.77;;;10.10;94.80;;;;;;5025655;28;20080;-70
2022/09/17 10:57:53;;;;;;;2.25;0.50;;;10.00;94.90;;;;;;5029288;28;20030;-71
2022/09/17 11:00:22;;;;;;;4.07;0.68;;;10.10;95.30;;;;;;5030435;28;20065;-71
2022/09/17 11:03:13;;;;;;;4.85;0.47;;;10.30;95.70;;;;;;5024942;28;20040;-69
2022/09/17 11:06:07;;;;;;;9.50;1.00;;;10.20;95.40;;;;;;5024617;28;20029;-70
2022/09/17 11:09:12;;;;;;;5.47;1.02;;;10.20;95.30;;;;;;5025941;28;20022;-69
2022/09/17 11:12:11;;;;;;;5.80;0.90;;;10.40;95.20;;;;;;5028251;28;20119;-71
2022/09/17 11:14:53;;;;;;;4.40;0.55;;;10.40;94.50;;;;;;5019765;28;20030;-70
2022/09/17 11:17:39;;;;;;;7.20;1.27;;;10.40;94.60;;;;;;5028829;28;20022;-71
2022/09/17 11:20:26;;;;;;;6.43;0.90;;;10.40;94.70;;;;;;5027516;28;20030;-70
2022/09/17 11:23:45;;;;;;;6.75;0.85;;;10.30;95.00;;;;;;5026290;28;20049;-71
2022/09/17 11:26:40;;;;;;;5.07;1.17;;;10.10;95.00;;;;;;5020612;28;20048;-73
2022/09/17 11:29:26;;;;;;;6.50;1.27;;;10.20;95.40;;;;;;5027347;28;20044;-73
2022/09/17 11:32:33;;;;;;;4.25;0.75;;;10.30;95.60;;;;;;5027278;28;20075;-70
2022/09/17 11:35:02;;;;;;;5.22;0.98;;;10.20;95.70;;;;;;5012089;28;20049;-72
2022/09/17 11:37:42;;;;;;;4.53;0.75;;;10.30;95.60;;;;;;5033169;28;20029;-71
2022/09/17 11:40:13;;;;;;;3.95;1.42;;;10.20;95.80;;;;;;5031546;28;20103;-72
2022/09/17 11:42:52;;;;;;;6.45;1.73;;;10.20;96.20;;;;;;5029550;28;20033;-72
2022/09/17 11:45:27;;;;;;;5.75;1.30;;;10.00;96.30;;;;;;5026480;28;20033;-72
2022/09/17 11:48:02;;;;;;;6.57;1.40;;;9.90;96.80;;;;;;5032993;28;20052;-73
2022/09/17 11:50:33;;;;;;;5.60;0.93;;;9.90;97.20;;;;;;5030769;28;20033;-72
2022/09/17 11:53:08;;;;;;;7.03;1.00;;;9.80;97.40;;;;;;5024060;28;20030;-73
2022/09/17 11:55:59;;;;;;;4.90;1.33;;;9.80;97.40;;;;;;5024994;28;20029;-72
2022/09/17 11:58:45;;;;;;;8.48;1.38;;;9.80;97.50;;;;;;5023803;28;20047;-73
2022/09/17 12:01:17;;;;;;;3.05;1.25;;;9.90;97.50;;;;;;5017028;28;20052;-72
2022/09/17 12:03:54;;;;;;;5.18;1.10;;;9.90;97.40;;;;;;5020940;28;20202;-71
2022/09/17 12:06:39;;;;;;;6.55;1.27;;;10.00;97.40;;;;;;5021555;28;20056;-72
2022/09/17 12:09:24;;;;;;;13.50;1.33;;;10.00;97.40;;;;;;5028151;28;20179;-72
2022/09/17 12:12:05;;;;;;;9.45;0.93;;;9.90;97.20;;;;;;5033524;28;20033;-71
2022/09/17 12:14:43;;;;;;;5.57;1.10;;;9.90;97.30;;;;;;5028449;28;20032;-73
2022/09/17 12:17:15;;;;;;;9.50;1.35;;;10.00;97.30;;;;;;5024119;28;20056;-72
2022/09/17 12:19:51;;;;;;;3.78;1.10;;;10.00;97.30;;;;;;5028690;28;20029;-72
2022/09/17 12:22:29;;;;;;;8.98;1.27;;;10.10;97.30;;;;;;5033284;28;20053;-72
2022/09/17 12:24:56;;;;;;;4.85;1.00;;;10.20;97.30;;;;;;5023982;28;20109;-72
2022/09/17 12:27:43;;;;;;;4.22;1.20;;;10.50;97.30;;;;;;5025064;28;20035;-72
2022/09/17 12:30:13;;;;;;;5.55;1.35;;;10.60;97.40;;;;;;5020325;28;20030;-72
2022/09/17 12:33:01;;;;;;;9.07;1.33;;;10.80;97.10;;;;;;5027116;28;20541;-73
2022/09/17 12:36:01;;;;;;;7.38;0.95;;;11.20;96.70;;;;;;5014977;28;20351;-73
2022/09/17 12:39:10;;;;;;;6.32;1.45;;;11.20;96.20;;;;;;5032514;28;20037;-71
2022/09/17 12:41:51;;;;;;;4.88;0.98;;;11.30;96.20;;;;;;4976184;28;20065;-70
2022/09/17 12:44:38;;;;;;;3.67;0.80;;;11.30;95.60;;;;;;5016532;28;20095;-71
2022/09/17 12:47:18;;;;;;;4.85;0.65;;;11.20;95.10;;;;;;5028318;28;20038;-71
2022/09/17 12:49:58;;;;;;;4.30;0.93;;;11.60;95.60;;;;;;5029681;28;20033;-71
2022/09/17 12:53:08;;;;;;;7.65;0.95;;;11.80;94.50;;;;;;5020050;28;20033;-71
2022/09/17 12:56:01;;;;;;;6.95;0.82;;;12.30;93.70;;;;;;5033580;28;20026;-71
2022/09/17 12:58:41;;;;;;;1.95;0.68;;;12.40;92.70;;;;;;5029072;28;20033;-71
2022/09/17 13:01:23;;;;;;;2.30;0.60;;;12.60;92.50;;;;;;5023164;28;20128;-71
2022/09/17 13:03:54;;;;;;;3.70;0.82;;;13.00;92.40;;;;;;5026393;28;20033;-70
2022/09/17 13:07:03;;;;;;;1.30;0.38;;;12.70;90.30;;;;;;5028003;28;20420;-70
2022/09/17 13:09:51;;;;;;;5.60;0.80;;;12.50;91.10;;;;;;5031185;28;20037;-71
2022/09/17 13:12:46;;;;;;;4.15;0.90;;;12.60;91.60;;;;;;5025747;28;20032;-70
2022/09/17 13:15:27;;;;;;;4.53;0.70;;;12.50;90.60;;;;;;5027068;28;20029;-72